Time;durP1;ratioP1;P1;durP2;ratioP2;P2;SDS_P1;SDS_P2;PMS_P1;PMS_P2;Temp;Humidity;BMP_temperature;BMP_pressure;BME280_temperature;BME280_humidity;BME280_pressure;Samples;Min_cycle;Max_cycle;Signal;HPM_P1;HPM_P2
2023/01/29 00:01:52;;;;;;;12.48;8.35;;;-1.30;99.90;;;;;;5029485;28;20124;-68
2023/01/29 00:04:20;;;;;;;15.77;8.68;;;-1.20;99.90;;;;;;5042128;28;20392;-68
2023/01/29 00:06:47;;;;;;;11.43;8.75;;;-1.30;99.90;;;;;;5035647;28;20037;-67
2023/01/29 00:09:15;;;;;;;11.95;8.18;;;-1.30;99.90;;;;;;5048679;28;20445;-68
2023/01/29 00:11:42;;;;;;;10.65;7.95;;;-1.30;99.90;;;;;;5016775;28;20420;-67
2023/01/29 00:14:09;;;;;;;16.88;9.85;;;-1.30;99.90;;;;;;5041848;28;20059;-69
2023/01/29 00:16:37;;;;;;;11.68;8.27;;;-1.30;99.90;;;;;;5035492;28;20041;-67
2023/01/29 00:19:04;;;;;;;13.20;8.95;;;-1.50;99.90;;;;;;5044578;28;20052;-68
2023/01/29 00:21:32;;;;;;;11.35;8.40;;;-1.50;99.90;;;;;;5040919;28;20041;-67
2023/01/29 00:23:59;;;;;;;15.75;9.10;;;-1.50;99.90;;;;;;5031708;28;20047;-67
2023/01/29 00:26:27;;;;;;;11.48;8.52;;;-1.40;99.90;;;;;;5015885;28;20037;-67
2023/01/29 00:29:01;;;;;;;15.85;8.80;;;-1.40;99.90;;;;;;5043828;28;20042;-67
2023/01/29 00:31:28;;;;;;;10.85;8.23;;;-1.40;99.90;;;;;;5007387;28;20521;-67
2023/01/29 00:33:56;;;;;;;10.98;8.00;;;-1.40;99.90;;;;;;5050137;28;20045;-67
2023/01/29 00:36:25;;;;;;;13.98;8.65;;;-1.40;99.90;;;;;;5043957;28;20567;-67
2023/01/29 00:39:01;;;;;;;12.50;8.18;;;-1.40;99.90;;;;;;5033516;28;20049;-67
2023/01/29 00:47:29;;;;;;;13.05;9.02;;;-1.50;99.90;;;;;;5049847;28;20385;-67
2023/01/29 00:49:52;;;;;;;13.80;8.65;;;-1.50;99.90;;;;;;5038682;28;20065;-67
2023/01/29 00:52:25;;;;;;;11.70;8.55;;;-1.50;99.90;;;;;;5043063;28;20095;-67
2023/01/29 00:54:54;;;;;;;12.45;8.30;;;-1.50;99.90;;;;;;5044866;28;20140;-66
2023/01/29 00:57:23;;;;;;;11.20;8.00;;;-1.40;99.90;;;;;;5038739;28;20349;-67
2023/01/29 00:59:50;;;;;;;10.88;7.72;;;-1.40;99.90;;;;;;5031929;28;20172;-66
2023/01/29 01:05:12;;;;;;;10.73;8.15;;;-1.50;99.90;;;;;;5028536;28;20512;-66
2023/01/29 01:07:40;;;;;;;10.68;8.32;;;-1.50;99.90;;;;;;5044161;28;20547;-67
2023/01/29 01:10:23;;;;;;;13.70;8.30;;;-1.50;99.90;;;;;;5029062;28;20069;-67
2023/01/29 01:13:02;;;;;;;9.65;6.88;;;-1.50;99.90;;;;;;5045892;28;20067;-67
2023/01/29 01:15:36;;;;;;;12.85;8.77;;;-1.50;99.90;;;;;;5039065;28;20124;-67
2023/01/29 01:18:04;;;;;;;14.82;8.27;;;-1.50;99.90;;;;;;5036674;28;20127;-66
2023/01/29 01:20:34;;;;;;;13.52;9.40;;;-1.50;99.90;;;;;;5049876;28;20053;-65
2023/01/29 01:23:02;;;;;;;11.88;8.15;;;-1.50;99.90;;;;;;5035202;28;20045;-66
2023/01/29 01:25:29;;;;;;;12.65;8.65;;;-1.50;99.90;;;;;;5034198;28;20049;-66
2023/01/29 01:27:58;;;;;;;13.00;8.95;;;-1.60;99.90;;;;;;5031769;28;20531;-66
2023/01/29 01:30:25;;;;;;;12.20;8.05;;;-1.60;99.90;;;;;;5031100;28;20029;-66
2023/01/29 01:32:54;;;;;;;12.55;8.68;;;-1.60;99.90;;;;;;5035790;28;20407;-67
2023/01/29 01:35:21;;;;;;;13.50;8.35;;;-1.60;99.90;;;;;;5042692;28;20057;-66
2023/01/29 01:37:48;;;;;;;12.40;8.75;;;-1.60;99.90;;;;;;5049428;28;20361;-67
2023/01/29 01:40:20;;;;;;;11.45;8.70;;;-1.60;99.90;;;;;;5031819;28;20492;-67
2023/01/29 01:42:56;;;;;;;12.25;8.90;;;-1.60;99.90;;;;;;5037639;28;20518;-66
2023/01/29 01:45:34;;;;;;;13.63;7.88;;;-1.60;99.90;;;;;;5049168;28;20041;-66
2023/01/29 01:48:15;;;;;;;12.00;8.68;;;-1.60;99.90;;;;;;5037411;28;20055;-67
2023/01/29 01:50:51;;;;;;;11.50;8.55;;;-1.60;99.90;;;;;;5032507;28;20432;-66
2023/01/29 01:53:25;;;;;;;12.32;9.43;;;-1.60;99.90;;;;;;5042529;28;20073;-66
2023/01/29 01:56:00;;;;;;;12.77;8.32;;;-1.60;99.90;;;;;;5022051;28;20496;-66
2023/01/29 01:58:36;;;;;;;14.07;9.10;;;-1.60;99.90;;;;;;5037747;28;20038;-66
2023/01/29 02:01:06;;;;;;;11.95;8.57;;;-1.70;99.90;;;;;;5017206;28;20477;-66
2023/01/29 02:09:36;;;;;;;12.43;8.90;;;-1.70;99.90;;;;;;5044288;28;20518;-67
2023/01/29 02:12:11;;;;;;;11.93;9.50;;;-1.70;99.90;;;;;;5040627;28;20045;-67
2023/01/29 02:14:40;;;;;;;12.85;9.07;;;-1.70;99.90;;;;;;5016337;28;20052;-66
2023/01/29 02:17:16;;;;;;;15.45;9.35;;;-1.80;99.90;;;;;;5020294;28;20048;-66
2023/01/29 02:20:09;;;;;;;12.88;8.63;;;-1.80;99.90;;;;;;5036567;28;20523;-67
2023/01/29 02:22:58;;;;;;;13.93;8.73;;;-1.80;99.90;;;;;;5052594;28;20052;-67
2023/01/29 02:25:47;;;;;;;14.02;9.18;;;-1.80;99.90;;;;;;5044354;28;20119;-67
2023/01/29 02:29:26;;;;;;;13.63;8.63;;;-1.80;99.90;;;;;;5030739;28;20092;-66
2023/01/29 02:32:19;;;;;;;12.75;8.20;;;-1.80;99.90;;;;;;5039109;28;20080;-66
2023/01/29 02:38:20;;;;;;;12.27;9.20;;;-1.80;99.90;;;;;;5026948;28;20073;-66
2023/01/29 02:41:02;;;;;;;12.43;9.35;;;-1.80;99.90;;;;;;5048254;28;20071;-66
2023/01/29 02:43:46;;;;;;;12.68;8.80;;;-1.90;99.90;;;;;;5037318;28;20045;-67
2023/01/29 02:46:52;;;;;;;14.55;9.13;;;-1.90;99.90;;;;;;5040577;28;20446;-67
2023/01/29 02:49:33;;;;;;;11.25;9.20;;;-1.80;99.90;;;;;;4947846;28;20138;-67
2023/01/29 02:52:07;;;;;;;16.00;8.60;;;-1.90;99.90;;;;;;4952745;29;20055;-67
2023/01/29 02:54:44;;;;;;;14.23;9.60;;;-1.90;99.90;;;;;;4937281;29;20047;-67
2023/01/29 02:57:27;;;;;;;11.88;9.15;;;-1.80;99.90;;;;;;4950265;29;20167;-67
2023/01/29 03:00:02;;;;;;;10.63;7.88;;;-1.80;99.90;;;;;;4935717;29;20054;-67
2023/01/29 03:02:48;;;;;;;14.88;9.48;;;-1.80;99.90;;;;;;4955145;28;20048;-67
2023/01/29 03:05:25;;;;;;;13.15;9.38;;;-1.80;99.90;;;;;;4966670;28;20050;-67
2023/01/29 03:08:01;;;;;;;12.85;8.60;;;-1.80;99.90;;;;;;4974992;28;20057;-67
2023/01/29 03:10:46;;;;;;;15.05;9.43;;;-1.80;99.90;;;;;;4968339;28;20565;-67
2023/01/29 03:13:32;;;;;;;15.07;9.52;;;-1.80;99.90;;;;;;4971972;28;20057;-67
2023/01/29 03:16:26;;;;;;;12.57;8.10;;;-1.80;99.90;;;;;;4956027;28;20577;-67
2023/01/29 03:19:01;;;;;;;13.15;9.73;;;-1.80;99.90;;;;;;4977161;28;20050;-67
2023/01/29 03:33:26;;;;;;;12.82;8.85;;;-1.70;99.90;;;;;;5021322;28;20033;-67
2023/01/29 03:36:01;;;;;;;11.67;8.37;;;-1.70;99.90;;;;;;5014501;28;20064;-67
2023/01/29 03:38:30;;;;;;;10.93;8.27;;;-1.70;99.90;;;;;;5011984;28;20493;-67
2023/01/29 03:41:15;;;;;;;12.60;9.00;;;-1.80;99.90;;;;;;5027604;28;20050;-67
2023/01/29 03:44:12;;;;;;;13.07;8.57;;;-1.70;99.90;;;;;;5026423;28;20050;-67
2023/01/29 03:46:55;;;;;;;11.50;8.45;;;-1.70;99.90;;;;;;5026800;28;20048;-67
2023/01/29 03:49:35;;;;;;;11.68;8.30;;;-1.80;99.90;;;;;;5020030;28;20526;-67
2023/01/29 03:52:22;;;;;;;11.57;9.07;;;-1.80;99.90;;;;;;5013934;28;20053;-67
2023/01/29 03:55:09;;;;;;;13.88;9.27;;;-1.80;99.90;;;;;;5030529;28;20455;-67
2023/01/29 03:57:39;;;;;;;12.68;9.57;;;-1.80;99.90;;;;;;5030719;28;20037;-67
2023/01/29 04:00:24;;;;;;;11.88;8.85;;;-1.80;99.90;;;;;;5014238;28;20200;-67
2023/01/29 04:03:05;;;;;;;12.30;9.07;;;-1.80;99.90;;;;;;5013958;28;20060;-67
2023/01/29 04:06:08;;;;;;;12.10;8.97;;;-1.70;99.90;;;;;;5028900;28;20092;-67
2023/01/29 04:08:48;;;;;;;12.52;9.23;;;-1.80;99.90;;;;;;5030815;28;20405;-68
2023/01/29 04:11:19;;;;;;;14.75;9.82;;;-1.80;99.90;;;;;;5029696;28;20500;-67
2023/01/29 04:13:48;;;;;;;15.90;9.40;;;-1.80;99.90;;;;;;5030648;28;20124;-67
2023/01/29 04:16:24;;;;;;;13.05;9.25;;;-1.90;99.90;;;;;;5016811;28;20526;-66
2023/01/29 04:19:11;;;;;;;12.50;8.95;;;-1.80;99.90;;;;;;5029610;28;20101;-66
2023/01/29 04:21:41;;;;;;;13.47;8.87;;;-1.70;99.90;;;;;;5025514;28;20038;-66
2023/01/29 04:24:11;;;;;;;10.70;8.52;;;-1.80;99.90;;;;;;5028054;28;20388;-66
2023/01/29 04:26:56;;;;;;;13.63;9.43;;;-1.80;99.90;;;;;;5029682;28;20522;-66
2023/01/29 04:29:49;;;;;;;13.93;8.88;;;-1.80;99.90;;;;;;5029093;28;20054;-66
2023/01/29 04:32:39;;;;;;;14.00;9.43;;;-1.90;99.90;;;;;;5029982;28;20087;-66
2023/01/29 04:35:15;;;;;;;15.35;10.40;;;-1.80;99.90;;;;;;5032114;28;20034;-66
2023/01/29 04:37:51;;;;;;;12.90;9.80;;;-1.80;99.90;;;;;;5030919;28;20500;-67
2023/01/29 04:40:22;;;;;;;12.68;9.32;;;-1.80;99.90;;;;;;5012211;28;20046;-66
2023/01/29 04:43:14;;;;;;;13.18;9.80;;;-1.80;99.90;;;;;;5011105;28;20124;-66
2023/01/29 04:45:57;;;;;;;13.90;9.60;;;-1.80;99.90;;;;;;5011053;28;20049;-66
2023/01/29 04:49:05;;;;;;;13.20;9.02;;;-1.80;99.90;;;;;;5031682;28;20049;-67
2023/01/29 04:51:42;;;;;;;14.52;9.38;;;-1.80;99.90;;;;;;5010931;28;20045;-66
2023/01/29 04:54:38;;;;;;;14.30;9.50;;;-1.80;99.90;;;;;;5011958;28;20049;-66
2023/01/29 04:57:10;;;;;;;14.23;9.40;;;-1.70;99.90;;;;;;5021325;28;20048;-67
2023/01/29 04:59:49;;;;;;;12.65;8.93;;;-1.70;99.90;;;;;;5018800;28;20556;-67
2023/01/29 05:02:21;;;;;;;12.52;8.77;;;-1.70;99.90;;;;;;5044692;28;20124;-67
2023/01/29 05:04:49;;;;;;;;;;;-1.80;99.90;;;;;;5025900;28;20453;-67
2023/01/29 05:07:18;;;;;;;13.60;9.65;;;-1.80;99.90;;;;;;5029152;28;19975;-67
2023/01/29 05:09:46;;;;;;;15.15;10.07;;;-1.80;99.90;;;;;;5028548;28;20111;-67
2023/01/29 05:12:16;;;;;;;13.02;9.52;;;-1.80;99.90;;;;;;5029524;28;20477;-67
2023/01/29 05:14:45;;;;;;;17.70;10.80;;;-1.90;99.90;;;;;;5010816;28;20513;-67
2023/01/29 05:17:19;;;;;;;13.18;9.35;;;-1.90;99.90;;;;;;5017468;28;20080;-66
2023/01/29 05:19:46;;;;;;;14.68;10.00;;;-1.90;99.90;;;;;;5010999;28;20042;-67
2023/01/29 05:22:17;;;;;;;15.82;9.85;;;-1.90;99.90;;;;;;5017535;28;20037;-68
2023/01/29 05:24:45;;;;;;;13.73;9.52;;;-1.90;99.90;;;;;;5029180;28;20075;-68
2023/01/29 05:30:24;;;;;;;;;;;-1.90;99.90;;;;;;5018920;28;20068;-66
2023/01/29 05:32:52;;;;;;;13.65;10.15;;;-2.00;99.90;;;;;;5010758;28;19925;-66
2023/01/29 05:35:19;;;;;;;15.50;10.60;;;-1.90;99.90;;;;;;5008774;28;20042;-68
2023/01/29 05:37:47;;;;;;;14.15;10.65;;;-1.90;99.90;;;;;;5010106;28;20497;-67
2023/01/29 05:40:14;;;;;;;14.50;9.90;;;-1.90;99.90;;;;;;5008665;28;20046;-67
2023/01/29 05:42:42;;;;;;;14.38;9.95;;;-1.80;99.90;;;;;;5007946;28;20065;-67
2023/01/29 05:45:10;;;;;;;14.95;10.48;;;-1.90;99.90;;;;;;5008740;28;20477;-66
2023/01/29 05:47:37;;;;;;;16.40;10.00;;;-1.80;99.90;;;;;;5012751;28;20374;-67
2023/01/29 05:50:05;;;;;;;15.65;11.18;;;-1.90;99.90;;;;;;5024404;28;20392;-66
2023/01/29 05:52:32;;;;;;;15.25;10.80;;;-1.90;99.90;;;;;;5029580;28;20055;-67
2023/01/29 05:54:59;;;;;;;13.88;10.52;;;-1.80;99.90;;;;;;5032495;28;20046;-67
2023/01/29 05:57:27;;;;;;;16.85;10.32;;;-1.80;99.90;;;;;;5029788;28;20411;-67
2023/01/29 05:59:54;;;;;;;16.42;10.68;;;-1.80;99.90;;;;;;5028556;28;20518;-67
2023/01/29 06:02:21;;;;;;;16.50;10.40;;;-1.80;99.90;;;;;;4994788;28;20580;-67
2023/01/29 06:04:54;;;;;;;17.60;11.20;;;-1.80;99.90;;;;;;5035477;28;20078;-67
2023/01/29 06:07:21;;;;;;;15.40;11.50;;;-1.80;99.90;;;;;;5035181;28;20262;-67
2023/01/29 06:09:48;;;;;;;17.65;11.88;;;-1.80;99.90;;;;;;5045070;28;20385;-67
2023/01/29 06:12:15;;;;;;;17.58;11.70;;;-1.80;99.90;;;;;;5030996;28;20065;-66
2023/01/29 06:14:43;;;;;;;17.55;11.70;;;-1.80;99.90;;;;;;5032125;28;20407;-67
2023/01/29 06:17:10;;;;;;;17.02;10.88;;;-1.80;99.90;;;;;;5031223;28;20496;-67
2023/01/29 06:19:38;;;;;;;16.02;11.68;;;-1.80;99.90;;;;;;5014374;28;20047;-67
2023/01/29 06:22:05;;;;;;;20.58;13.60;;;-1.90;99.90;;;;;;5008531;28;20046;-66
2023/01/29 06:24:32;;;;;;;13.75;10.43;;;-1.80;99.90;;;;;;5013646;28;20064;-67
2023/01/29 06:27:00;;;;;;;18.50;11.43;;;-2.00;99.90;;;;;;5017107;28;20042;-66
2023/01/29 06:29:27;;;;;;;15.48;11.13;;;-2.10;99.90;;;;;;5031870;28;20049;-66
2023/01/29 06:31:54;;;;;;;16.30;10.90;;;-1.90;99.90;;;;;;5033336;28;20187;-66
2023/01/29 06:34:22;;;;;;;15.10;11.10;;;-2.00;99.90;;;;;;5032060;28;20049;-67
2023/01/29 06:36:49;;;;;;;18.27;11.43;;;-2.00;99.90;;;;;;5015505;28;20049;-67
2023/01/29 06:39:16;;;;;;;16.20;10.60;;;-2.00;99.90;;;;;;5030944;28;20120;-66
2023/01/29 06:41:45;;;;;;;14.95;10.98;;;-2.00;99.90;;;;;;5016033;28;20512;-66
2023/01/29 06:44:12;;;;;;;17.13;11.02;;;-2.00;99.90;;;;;;5032154;28;20080;-66
2023/01/29 06:46:39;;;;;;;15.40;10.98;;;-2.00;99.90;;;;;;5032019;28;20171;-67
2023/01/29 06:49:07;;;;;;;15.52;9.93;;;-2.10;99.90;;;;;;5019360;28;20160;-66
2023/01/29 06:51:34;;;;;;;16.15;10.60;;;-2.10;99.90;;;;;;5018802;28;20045;-66
2023/01/29 06:54:02;;;;;;;20.23;11.23;;;-2.10;99.90;;;;;;5031287;28;20034;-66
2023/01/29 06:56:29;;;;;;;15.30;11.07;;;-2.00;99.90;;;;;;5030236;28;20088;-66
2023/01/29 06:58:56;;;;;;;17.45;11.18;;;-2.00;99.90;;;;;;5030189;28;20048;-67
2023/01/29 07:01:23;;;;;;;17.33;10.95;;;-1.90;99.90;;;;;;5020316;28;20056;-66
2023/01/29 07:04:02;;;;;;;18.98;11.45;;;-1.90;99.90;;;;;;5031956;28;20128;-66
2023/01/29 07:06:30;;;;;;;17.90;11.77;;;-1.80;99.90;;;;;;5019485;28;20042;-67
2023/01/29 07:08:58;;;;;;;16.65;10.55;;;-1.90;99.90;;;;;;5012302;28;20869;-66
2023/01/29 07:11:25;;;;;;;14.45;10.30;;;-2.00;99.90;;;;;;5025710;28;20464;-67
2023/01/29 07:13:52;;;;;;;15.98;10.70;;;-1.90;99.90;;;;;;5015407;28;20141;-66
2023/01/29 07:16:20;;;;;;;14.95;11.32;;;-2.00;99.90;;;;;;5010593;28;20046;-66
2023/01/29 07:18:47;;;;;;;13.80;10.38;;;-2.00;99.90;;;;;;5011349;28;20044;-66
2023/01/29 07:21:14;;;;;;;15.48;10.63;;;-1.90;99.90;;;;;;5020881;28;20492;-67
2023/01/29 07:23:41;;;;;;;16.95;10.63;;;-1.80;99.90;;;;;;5018502;28;20547;-66
2023/01/29 07:26:10;;;;;;;16.42;9.80;;;-1.80;99.90;;;;;;5010856;28;20509;-66
2023/01/29 07:28:38;;;;;;;16.83;10.35;;;-1.80;99.90;;;;;;5009985;28;20060;-66
2023/01/29 07:31:06;;;;;;;15.65;10.65;;;-1.90;99.90;;;;;;5012006;28;20166;-66
2023/01/29 07:33:34;;;;;;;15.40;10.48;;;-1.90;99.90;;;;;;5011059;28;20096;-63
2023/01/29 07:36:01;;;;;;;13.85;10.02;;;-1.90;99.90;;;;;;5019473;28;20040;-65
2023/01/29 07:38:28;;;;;;;15.23;10.20;;;-2.00;99.90;;;;;;5028891;28;20045;-66
2023/01/29 07:40:56;;;;;;;14.93;10.13;;;-2.00;99.90;;;;;;5047198;28;20528;-66
2023/01/29 07:43:23;;;;;;;15.60;11.15;;;-2.00;99.90;;;;;;5048114;28;20471;-67
2023/01/29 07:45:51;;;;;;;14.80;10.85;;;-1.90;99.90;;;;;;5041201;28;20584;-68
2023/01/29 07:48:18;;;;;;;13.57;9.82;;;-1.90;99.90;;;;;;5043905;28;20128;-67
2023/01/29 07:50:54;;;;;;;19.00;11.30;;;-1.80;99.90;;;;;;5024929;28;20049;-67
2023/01/29 07:53:21;;;;;;;17.10;11.40;;;-1.80;99.90;;;;;;5036164;28;20464;-68
2023/01/29 07:55:49;;;;;;;14.68;9.93;;;-1.70;99.90;;;;;;5026826;28;20216;-69
2023/01/29 07:58:16;;;;;;;16.30;10.65;;;-1.70;99.90;;;;;;5031297;28;20396;-69
2023/01/29 08:00:44;;;;;;;16.92;10.23;;;-1.80;99.90;;;;;;5049833;28;20044;-68
2023/01/29 08:03:15;;;;;;;19.85;12.00;;;-1.80;99.90;;;;;;5038423;28;20073;-68
2023/01/29 08:05:43;;;;;;;15.45;10.77;;;-1.70;99.90;;;;;;5051588;28;20068;-68
2023/01/29 08:08:11;;;;;;;14.00;10.25;;;-1.70;99.90;;;;;;5048556;28;20553;-68
2023/01/29 08:10:39;;;;;;;13.50;9.38;;;-1.70;99.90;;;;;;5043625;28;20045;-67
2023/01/29 08:13:07;;;;;;;14.40;9.88;;;-1.50;99.90;;;;;;5039197;28;20454;-70
2023/01/29 08:15:34;;;;;;;14.30;9.60;;;-1.70;99.90;;;;;;5037184;28;20061;-71
2023/01/29 08:18:05;;;;;;;15.00;10.75;;;-1.70;99.90;;;;;;5041124;28;20040;-70
2023/01/29 08:20:32;;;;;;;13.85;10.00;;;-1.70;99.90;;;;;;5050856;28;20492;-71
2023/01/29 08:23:05;;;;;;;15.90;10.85;;;-1.70;99.90;;;;;;5051042;28;20536;-70
2023/01/29 08:25:34;;;;;;;16.08;10.90;;;-1.70;99.90;;;;;;5051171;28;20041;-71
2023/01/29 08:28:01;;;;;;;13.15;9.70;;;-1.60;99.90;;;;;;5033077;28;20697;-71
2023/01/29 08:30:31;;;;;;;15.38;10.43;;;-1.70;99.90;;;;;;5051012;28;20383;-70
2023/01/29 08:32:59;;;;;;;16.52;11.32;;;-1.70;99.90;;;;;;5034626;28;20140;-70
2023/01/29 08:35:26;;;;;;;16.77;11.40;;;-1.50;99.90;;;;;;5029360;28;20045;-70
2023/01/29 08:37:59;;;;;;;15.70;10.98;;;-1.40;99.90;;;;;;5030822;28;20060;-70
2023/01/29 08:40:28;;;;;;;13.52;10.73;;;-1.30;99.90;;;;;;5045163;28;20048;-70
2023/01/29 08:42:59;;;;;;;15.95;11.35;;;-1.30;99.90;;;;;;5024034;28;20045;-70
2023/01/29 08:45:30;;;;;;;15.70;10.32;;;-1.10;99.90;;;;;;5049444;28;20061;-70
2023/01/29 08:47:57;;;;;;;15.68;11.73;;;-1.00;99.90;;;;;;5049971;28;20055;-71
2023/01/29 08:50:24;;;;;;;14.68;10.70;;;-1.00;99.90;;;;;;5035052;28;20038;-71
2023/01/29 08:52:57;;;;;;;16.27;10.48;;;-0.90;99.90;;;;;;5031031;28;20459;-70
2023/01/29 08:55:25;;;;;;;15.55;10.45;;;-0.80;99.90;;;;;;5049230;28;20579;-71
2023/01/29 08:57:53;;;;;;;18.42;11.30;;;-0.70;99.90;;;;;;5046264;28;20046;-72
2023/01/29 09:00:21;;;;;;;14.10;9.95;;;-0.70;99.90;;;;;;5029547;28;20512;-71
2023/01/29 09:02:48;;;;;;;14.63;11.18;;;-0.60;99.90;;;;;;5045453;28;20055;-72
2023/01/29 09:05:15;;;;;;;16.80;10.55;;;-0.70;99.90;;;;;;5044071;28;20045;-71
2023/01/29 09:07:43;;;;;;;13.27;10.45;;;-0.70;99.90;;;;;;5031538;28;20049;-71
2023/01/29 09:10:11;;;;;;;16.80;11.50;;;-0.60;99.90;;;;;;5028827;28;20061;-72
2023/01/29 09:12:38;;;;;;;15.27;11.25;;;-0.40;99.90;;;;;;5032944;28;20044;-71
2023/01/29 09:15:06;;;;;;;14.68;11.40;;;-0.40;99.90;;;;;;5041789;28;20135;-72
2023/01/29 09:17:34;;;;;;;15.63;10.70;;;-0.30;99.90;;;;;;5048234;28;20048;-73
2023/01/29 09:20:01;;;;;;;15.20;11.07;;;-0.30;99.90;;;;;;5042016;28;20042;-72
2023/01/29 09:22:29;;;;;;;18.88;11.30;;;-0.30;99.90;;;;;;5019296;28;20139;-71
2023/01/29 09:24:56;;;;;;;16.58;11.05;;;-0.30;99.90;;;;;;5030199;28;20056;-71
2023/01/29 09:27:23;;;;;;;18.15;11.57;;;-0.30;99.90;;;;;;5032686;28;20041;-71
2023/01/29 09:29:51;;;;;;;14.25;10.95;;;-0.20;99.90;;;;;;5040803;28;20045;-74
2023/01/29 09:32:18;;;;;;;14.68;11.02;;;-0.40;99.90;;;;;;5024040;28;20076;-72
2023/01/29 09:35:05;;;;;;;15.40;11.23;;;-0.50;99.90;;;;;;5046580;28;20460;-71
2023/01/29 09:37:33;;;;;;;18.45;12.13;;;-0.50;99.90;;;;;;5035416;28;20038;-71
2023/01/29 09:40:00;;;;;;;18.13;11.75;;;-0.40;99.90;;;;;;5028618;28;20051;-71
2023/01/29 09:42:40;;;;;;;15.13;11.23;;;-0.40;99.90;;;;;;5029732;28;20038;-72
2023/01/29 09:45:13;;;;;;;18.08;12.18;;;-0.20;99.90;;;;;;5049120;28;20403;-72
2023/01/29 09:47:41;;;;;;;20.77;13.25;;;-0.20;99.90;;;;;;5026962;28;20053;-72
2023/01/29 09:50:20;;;;;;;16.77;12.00;;;-0.10;99.90;;;;;;5036221;28;20038;-71
2023/01/29 09:53:07;;;;;;;18.60;11.82;;;0.00;99.90;;;;;;5020520;28;20061;-72
2023/01/29 09:55:42;;;;;;;16.65;11.93;;;0.10;99.90;;;;;;5041914;28;20120;-72
2023/01/29 09:58:19;;;;;;;15.77;11.32;;;0.20;99.90;;;;;;5041644;28;20037;-72
2023/01/29 10:01:05;;;;;;;16.88;11.75;;;0.40;99.90;;;;;;5043419;28;20464;-71
2023/01/29 10:03:58;;;;;;;16.58;12.10;;;0.40;99.90;;;;;;4999739;28;20049;-73
2023/01/29 10:06:57;;;;;;;18.35;12.07;;;0.20;99.90;;;;;;5027864;28;20087;-73
2023/01/29 10:09:46;;;;;;;20.50;12.95;;;0.10;99.90;;;;;;4993292;28;20073;-72
2023/01/29 10:12:42;;;;;;;16.38;11.10;;;0.20;99.90;;;;;;5029035;28;20424;-73
2023/01/29 10:15:31;;;;;;;17.02;12.10;;;0.40;99.90;;;;;;5027947;28;20046;-71
2023/01/29 10:18:26;;;;;;;18.15;11.57;;;0.50;99.90;;;;;;5035076;28;20037;-71
2023/01/29 10:21:28;;;;;;;15.82;10.55;;;0.50;99.90;;;;;;5031817;28;20392;-73
2023/01/29 10:23:58;;;;;;;17.63;11.75;;;0.60;99.90;;;;;;5049898;28;20458;-71
2023/01/29 10:26:28;;;;;;;18.33;11.40;;;0.50;99.90;;;;;;5009184;28;20034;-72
2023/01/29 10:28:57;;;;;;;14.30;10.57;;;0.70;99.90;;;;;;5026413;28;20042;-72
2023/01/29 10:31:33;;;;;;;16.15;11.18;;;0.70;99.90;;;;;;5029882;28;20042;-74
2023/01/29 10:34:13;;;;;;;16.20;11.45;;;0.80;99.90;;;;;;5022845;28;20057;-71
2023/01/29 10:36:45;;;;;;;18.17;11.00;;;0.80;99.90;;;;;;5029647;28;20087;-71
2023/01/29 10:39:18;;;;;;;16.63;11.15;;;0.80;99.90;;;;;;5031197;28;20037;-69
2023/01/29 10:42:17;;;;;;;18.30;11.93;;;0.70;99.90;;;;;;5033477;28;20041;-72
2023/01/29 10:45:17;;;;;;;18.25;11.73;;;0.60;99.90;;;;;;5025637;28;20072;-72
2023/01/29 10:48:12;;;;;;;17.92;12.00;;;0.20;99.90;;;;;;5021651;28;20570;-72
2023/01/29 10:50:51;;;;;;;16.80;11.65;;;0.20;99.90;;;;;;5029855;28;20067;-72
2023/01/29 10:53:37;;;;;;;13.90;10.10;;;0.30;99.90;;;;;;5032682;28;20087;-72
2023/01/29 10:56:29;;;;;;;15.75;10.15;;;0.40;99.90;;;;;;5033390;28;20037;-72
2023/01/29 10:59:04;;;;;;;17.45;10.95;;;0.10;99.90;;;;;;5030413;28;20045;-72
2023/01/29 11:01:31;;;;;;;17.35;11.70;;;0.00;99.90;;;;;;5021927;28;20042;-72
2023/01/29 11:04:02;;;;;;;15.90;11.38;;;0.20;99.90;;;;;;5021794;28;20550;-72
2023/01/29 11:06:34;;;;;;;17.20;11.70;;;0.10;99.90;;;;;;5009381;28;20030;-71
2023/01/29 11:09:34;;;;;;;17.80;11.65;;;0.10;99.90;;;;;;5012555;28;20446;-71
2023/01/29 11:12:09;;;;;;;17.52;12.00;;;0.30;99.90;;;;;;5013445;28;20424;-73
2023/01/29 11:15:04;;;;;;;17.60;11.65;;;0.50;99.90;;;;;;5030686;28;20037;-71
2023/01/29 11:17:31;;;;;;;17.90;11.88;;;0.80;99.90;;;;;;5042348;28;20121;-71
2023/01/29 11:19:58;;;;;;;15.90;11.60;;;0.70;99.90;;;;;;5028926;28;20045;-72
2023/01/29 11:22:28;;;;;;;16.52;10.45;;;0.90;99.90;;;;;;5030632;28;20054;-72
2023/01/29 11:25:17;;;;;;;16.95;11.02;;;1.00;99.90;;;;;;5033039;28;20060;-72
2023/01/29 11:27:54;;;;;;;16.23;11.18;;;1.20;99.90;;;;;;5000907;28;20058;-71
2023/01/29 11:30:30;;;;;;;17.35;11.30;;;1.10;99.90;;;;;;5012084;28;20084;-71
2023/01/29 11:33:23;;;;;;;14.85;10.88;;;1.30;99.90;;;;;;5011812;28;20050;-71
2023/01/29 11:35:51;;;;;;;;;;;1.00;99.90;;;;;;5022414;28;20068;-71
2023/01/29 11:38:28;;;;;;;17.88;11.20;;;0.80;99.90;;;;;;5012158;28;20016;-73
2023/01/29 11:41:13;;;;;;;15.68;11.32;;;0.70;99.90;;;;;;5010838;28;20065;-71
2023/01/29 11:43:40;;;;;;;16.13;10.88;;;0.70;99.90;;;;;;5010363;28;20411;-75
2023/01/29 11:46:14;;;;;;;17.08;11.43;;;1.00;99.90;;;;;;4994679;28;20112;-76
2023/01/29 11:48:52;;;;;;;18.40;11.98;;;1.30;99.90;;;;;;5017544;28;20144;-74
2023/01/29 11:51:40;;;;;;;15.85;10.93;;;1.30;99.90;;;;;;5030016;28;20415;-72
2023/01/29 11:54:16;;;;;;;17.02;11.18;;;1.50;99.90;;;;;;5032337;28;20056;-74
2023/01/29 11:56:46;;;;;;;15.00;11.23;;;1.50;99.90;;;;;;5029438;28;20041;-71
2023/01/29 11:59:47;;;;;;;16.00;11.63;;;1.20;99.90;;;;;;5025370;28;20507;-71
2023/01/29 12:02:21;;;;;;;16.73;11.55;;;1.50;99.90;;;;;;5030600;28;20447;-71
2023/01/29 12:04:49;;;;;;;17.45;11.77;;;1.40;99.90;;;;;;5012640;28;20045;-71
2023/01/29 12:07:18;;;;;;;16.08;11.23;;;1.40;99.90;;;;;;5029567;28;20053;-71
2023/01/29 12:09:55;;;;;;;17.92;12.20;;;1.50;99.90;;;;;;5030599;28;20472;-73
2023/01/29 12:12:28;;;;;;;16.42;11.15;;;1.40;99.90;;;;;;5012470;28;20057;-73
2023/01/29 12:15:20;;;;;;;17.42;11.15;;;1.60;99.90;;;;;;5039067;28;20494;-73
2023/01/29 12:17:59;;;;;;;14.90;11.43;;;1.70;99.90;;;;;;5028814;28;20060;-72
2023/01/29 12:20:33;;;;;;;16.85;11.95;;;1.30;99.90;;;;;;5040910;28;20051;-68
2023/01/29 12:23:26;;;;;;;15.98;11.68;;;1.90;99.90;;;;;;5029505;28;20463;-69
2023/01/29 12:26:05;;;;;;;15.80;11.50;;;2.20;99.90;;;;;;5023608;28;20491;-68
2023/01/29 12:29:01;;;;;;;17.35;12.05;;;2.20;99.90;;;;;;5040766;28;20144;-68
2023/01/29 12:32:04;;;;;;;14.40;11.00;;;2.40;99.90;;;;;;5039894;28;20473;-67
2023/01/29 12:34:43;;;;;;;16.25;11.07;;;2.40;99.90;;;;;;5014160;28;20048;-68
2023/01/29 12:37:45;;;;;;;14.70;10.85;;;2.20;99.90;;;;;;5050023;28;20116;-68
2023/01/29 12:40:17;;;;;;;16.88;11.70;;;2.00;99.90;;;;;;5045723;28;20045;-68
2023/01/29 12:42:48;;;;;;;15.77;11.05;;;1.80;99.90;;;;;;5041212;28;20408;-68
2023/01/29 12:45:23;;;;;;;15.13;11.05;;;2.00;99.90;;;;;;5048867;28;20041;-69
2023/01/29 12:47:57;;;;;;;16.50;11.32;;;2.10;99.90;;;;;;5049204;28;20483;-68
2023/01/29 12:50:45;;;;;;;15.73;9.90;;;2.20;99.90;;;;;;5014094;28;20136;-68
2023/01/29 12:53:27;;;;;;;14.98;10.23;;;2.30;99.90;;;;;;5047886;28;20128;-69
2023/01/29 12:56:01;;;;;;;15.20;10.43;;;2.50;99.90;;;;;;5029192;28;20055;-69
2023/01/29 12:58:36;;;;;;;14.45;10.23;;;2.40;99.90;;;;;;4996093;28;20400;-67
2023/01/29 13:01:12;;;;;;;14.90;10.80;;;2.20;99.90;;;;;;5048530;28;20048;-68
2023/01/29 13:04:18;;;;;;;15.18;10.73;;;2.60;99.90;;;;;;5046869;28;20064;-69
2023/01/29 13:06:52;;;;;;;14.20;10.60;;;2.80;99.90;;;;;;5049770;28;20041;-69
2023/01/29 13:09:24;;;;;;;13.77;9.82;;;2.90;99.90;;;;;;5039884;28;20511;-69
2023/01/29 13:12:06;;;;;;;14.82;10.45;;;3.60;99.90;;;;;;5045117;28;20120;-69
2023/01/29 13:14:53;;;;;;;16.70;11.10;;;4.20;99.90;;;;;;5050666;28;20040;-68
2023/01/29 13:17:26;;;;;;;14.82;9.93;;;4.10;99.90;;;;;;5031567;28;20048;-68
2023/01/29 13:19:58;;;;;;;15.57;10.75;;;4.30;99.90;;;;;;5030807;28;20484;-68
2023/01/29 13:22:30;;;;;;;12.00;8.95;;;4.10;99.90;;;;;;4986380;28;20115;-66
2023/01/29 13:24:58;;;;;;;16.45;11.32;;;3.80;99.90;;;;;;5043782;28;20403;-66
2023/01/29 13:27:34;;;;;;;15.70;11.40;;;3.50;99.90;;;;;;5023484;28;20368;-68
2023/01/29 13:30:02;;;;;;;16.55;11.25;;;3.20;99.90;;;;;;5034829;28;20150;-69
2023/01/29 13:32:32;;;;;;;15.73;10.73;;;3.00;99.90;;;;;;5042091;28;20065;-68
2023/01/29 13:35:11;;;;;;;14.68;10.45;;;2.60;99.90;;;;;;5027408;28;20080;-69
2023/01/29 13:37:49;;;;;;;13.45;10.00;;;2.40;99.90;;;;;;5041287;28;20550;-68
2023/01/29 13:40:25;;;;;;;14.32;9.75;;;2.10;99.90;;;;;;5047074;28;20470;-67
2023/01/29 13:42:54;;;;;;;13.93;10.10;;;2.20;99.90;;;;;;5038883;28;20041;-68
2023/01/29 13:45:30;;;;;;;11.60;8.77;;;2.20;99.90;;;;;;5041698;28;20091;-67
2023/01/29 13:48:23;;;;;;;13.60;9.90;;;2.30;99.90;;;;;;5041826;28;20079;-67